^^
Paulen-Weather Station Historical Data
Daily Summary for May 14, 2022 Units:  Both    English   Metric
Daily Weekly Monthly Yearly Custom
  High: Low: Average:
Temperature: 60.8 °F /  16 °C 48.2 °F /  9 °C 53.2 °F /  11.8 °C
Dew Point: 48.2 °F /  9 °C 37.4 °F /  3 °C 43.9 °F /  6.6 °C
Humidity: 94% 49% 72%
Wind Speed: 20.5mph /  33km/h - 9.6mph /  15.5km/h
Wind Gust: 20.5mph /  33km/h - -
Wind- - NNW
Pressure: 30.1 in /  1018.02 hPa 29.7 in /  1004.74 hPa -
Precipitation: 0 in /  0 mm    
Historical Graphs
 
 
Tabular Data for May 14, 2022
Time Temperature Dew Point Pressure Wind Wind Speed Wind Gust Humidity Rainfall Rate (Hourly) solar
00:04 50 °F /  10 °C 48.2 °F /  9 °C 29.7in /  1004.84hPa NNW 9.9mph /  16km/h 8.7mph /  14km/h 94% 0in /  0mm 0 W/m2
00:09 50 °F /  10 °C 48.2 °F /  9 °C 29.7in /  1004.84hPa NNW 10.6mph /  17km/h 5mph /  8km/h 94% 0in /  0mm 0 W/m2
00:14 50 °F /  10 °C 48.2 °F /  9 °C 29.7in /  1004.81hPa NNW 10.6mph /  17km/h 6.8mph /  11km/h 94% 0in /  0mm 0 W/m2
00:19 50 °F /  10 °C 48.2 °F /  9 °C 29.7in /  1004.78hPa NNW 6.8mph /  11km/h 5mph /  8km/h 94% 0in /  0mm 0 W/m2
00:24 50 °F /  10 °C 48.2 °F /  9 °C 29.7in /  1004.74hPa NW 8.1mph /  13km/h 6.2mph /  10km/h 94% 0in /  0mm 0 W/m2
00:29 50 °F /  10 °C 48.2 °F /  9 °C 29.7in /  1004.74hPa NNW 6.2mph /  10km/h 3.7mph /  6km/h 94% 0in /  0mm 0 W/m2
00:34 50 °F /  10 °C 48.2 °F /  9 °C 29.7in /  1004.78hPa NW 7.5mph /  12km/h 4.3mph /  7km/h 93% 0in /  0mm 0 W/m2
00:39 50 °F /  10 °C 48.2 °F /  9 °C 29.7in /  1004.84hPa NW 8.1mph /  13km/h 4.3mph /  7km/h 93% 0in /  0mm 0 W/m2
00:44 50 °F /  10 °C 48.2 °F /  9 °C 29.7in /  1005.05hPa NW 7.5mph /  12km/h 5.6mph /  9km/h 93% 0in /  0mm 0 W/m2
00:49 50 °F /  10 °C 48.2 °F /  9 °C 29.7in /  1005.08hPa NW 8.7mph /  14km/h 4.3mph /  7km/h 93% 0in /  0mm 0 W/m2
00:54 50 °F /  10 °C 48.2 °F /  9 °C 29.7in /  1005.11hPa NW 6.2mph /  10km/h 5.6mph /  9km/h 93% 0in /  0mm 0 W/m2
00:59 50 °F /  10 °C 48.2 °F /  9 °C 29.7in /  1005.08hPa NW 8.1mph /  13km/h 5mph /  8km/h 92% 0in /  0mm 0 W/m2
01:04 50 °F /  10 °C 48.2 °F /  9 °C 29.7in /  1005.08hPa NNW 6.8mph /  11km/h 5.6mph /  9km/h 92% 0in /  0mm 0 W/m2
01:09 50 °F /  10 °C 48.2 °F /  9 °C 29.7in /  1005.08hPa NNW 8.7mph /  14km/h 3.7mph /  6km/h 92% 0in /  0mm 0 W/m2
01:14 50 °F /  10 °C 48.2 °F /  9 °C 29.7in /  1005.08hPa NNW 6.8mph /  11km/h 5.6mph /  9km/h 91% 0in /  0mm 0 W/m2
01:19 50 °F /  10 °C 48.2 °F /  9 °C 29.7in /  1005.11hPa NW 8.1mph /  13km/h 6.2mph /  10km/h 91% 0in /  0mm 0 W/m2
01:24 50 °F /  10 °C 48.2 °F /  9 °C 29.7in /  1005.01hPa NW 8.1mph /  13km/h 6.2mph /  10km/h 90% 0in /  0mm 0 W/m2
01:29 51.8 °F /  11 °C 48.2 °F /  9 °C 29.7in /  1005.05hPa NNW 9.3mph /  15km/h 6.2mph /  10km/h 88% 0in /  0mm 0 W/m2
01:34 51.8 °F /  11 °C 48.2 °F /  9 °C 29.7in /  1005.05hPa NW 5.6mph /  9km/h 3.7mph /  6km/h 88% 0in /  0mm 0 W/m2
01:39 51.8 °F /  11 °C 48.2 °F /  9 °C 29.7in /  1005.01hPa NNW 8.1mph /  13km/h 6.8mph /  11km/h 87% 0in /  0mm 0 W/m2
01:44 51.8 °F /  11 °C 48.2 °F /  9 °C 29.7in /  1004.91hPa NNW 7.5mph /  12km/h 6.8mph /  11km/h 87% 0in /  0mm 0 W/m2
01:49 51.8 °F /  11 °C 48.2 °F /  9 °C 29.7in /  1004.91hPa NW 6.8mph /  11km/h 4.3mph /  7km/h 87% 0in /  0mm 0 W/m2
01:54 51.8 °F /  11 °C 46.4 °F /  8 °C 29.7in /  1004.98hPa NNW 5mph /  8km/h 3.1mph /  5km/h 87% 0in /  0mm 0 W/m2
02:04 51.8 °F /  11 °C 46.4 °F /  8 °C 29.7in /  1005.18hPa NNW 8.1mph /  13km/h 5.6mph /  9km/h 87% 0in /  0mm 0 W/m2
02:09 50 °F /  10 °C 46.4 °F /  8 °C 29.7in /  1005.22hPa NNW 8.7mph /  14km/h 6.2mph /  10km/h 87% 0in /  0mm 0 W/m2
02:14 50 °F /  10 °C 46.4 °F /  8 °C 29.7in /  1005.28hPa NNW 8.7mph /  14km/h 5.6mph /  9km/h 88% 0in /  0mm 0 W/m2
02:19 50 °F /  10 °C 46.4 °F /  8 °C 29.7in /  1005.25hPa NW 8.1mph /  13km/h 5mph /  8km/h 89% 0in /  0mm 0 W/m2
02:24 50 °F /  10 °C 46.4 °F /  8 °C 29.7in /  1005.25hPa NNW 8.1mph /  13km/h 5.6mph /  9km/h 90% 0in /  0mm 0 W/m2
02:29 50 °F /  10 °C 46.4 °F /  8 °C 29.7in /  1005.22hPa NW 7.5mph /  12km/h 4.3mph /  7km/h 90% 0in /  0mm 0 W/m2
02:34 50 °F /  10 °C 46.4 °F /  8 °C 29.7in /  1005.28hPa NNW 6.2mph /  10km/h 5.6mph /  9km/h 91% 0in /  0mm 0 W/m2
02:39 50 °F /  10 °C 46.4 °F /  8 °C 29.7in /  1005.32hPa NW 6.8mph /  11km/h 3.7mph /  6km/h 91% 0in /  0mm 0 W/m2
02:44 50 °F /  10 °C 46.4 °F /  8 °C 29.7in /  1005.35hPa NNW 5.6mph /  9km/h 3.1mph /  5km/h 91% 0in /  0mm 0 W/m2
02:49 50 °F /  10 °C 46.4 °F /  8 °C 29.7in /  1005.35hPa NNW 6.2mph /  10km/h 3.7mph /  6km/h 91% 0in /  0mm 0 W/m2
02:54 48.2 °F /  9 °C 46.4 °F /  8 °C 29.7in /  1005.42hPa NNW 7.5mph /  12km/h 5mph /  8km/h 91% 0in /  0mm 0 W/m2
02:59 48.2 °F /  9 °C 46.4 °F /  8 °C 29.7in /  1005.42hPa NNW 6.8mph /  11km/h 6.2mph /  10km/h 92% 0in /  0mm 0 W/m2
03:04 48.2 °F /  9 °C 46.4 °F /  8 °C 29.7in /  1005.55hPa N 3.7mph /  6km/h 2.5mph /  4km/h 92% 0in /  0mm 0 W/m2
03:09 48.2 °F /  9 °C 46.4 °F /  8 °C 29.7in /  1005.62hPa NNW 5mph /  8km/h 5mph /  8km/h 92% 0in /  0mm 0 W/m2
03:14 48.2 °F /  9 °C 46.4 °F /  8 °C 29.7in /  1005.72hPa NNW 6.8mph /  11km/h 5.6mph /  9km/h 92% 0in /  0mm 0 W/m2
03:19 48.2 °F /  9 °C 46.4 °F /  8 °C 29.7in /  1005.89hPa NNW 7.5mph /  12km/h 5mph /  8km/h 93% 0in /  0mm 0 W/m2
03:24 48.2 °F /  9 °C 46.4 °F /  8 °C 29.7in /  1005.93hPa NNW 6.8mph /  11km/h 5.6mph /  9km/h 93% 0in /  0mm 0 W/m2
03:29 48.2 °F /  9 °C 46.4 °F /  8 °C 29.7in /  1006.13hPa NW 5mph /  8km/h 4.3mph /  7km/h 92% 0in /  0mm 0 W/m2
03:34 48.2 °F /  9 °C 46.4 °F /  8 °C 29.7in /  1006.13hPa NNW 7.5mph /  12km/h 5.6mph /  9km/h 92% 0in /  0mm 0 W/m2
03:39 48.2 °F /  9 °C 46.4 °F /  8 °C 29.7in /  1006.1hPa NNW 8.7mph /  14km/h 7.5mph /  12km/h 92% 0in /  0mm 0 W/m2
03:44 50 °F /  10 °C 46.4 °F /  8 °C 29.7in /  1006.13hPa NNW 8.7mph /  14km/h 5.6mph /  9km/h 91% 0in /  0mm 0 W/m2
03:49 50 °F /  10 °C 46.4 °F /  8 °C 29.7in /  1006.1hPa NNW 7.5mph /  12km/h 5.6mph /  9km/h 90% 0in /  0mm 0 W/m2
03:54 50 °F /  10 °C 46.4 °F /  8 °C 29.7in /  1006.06hPa NW 6.2mph /  10km/h 3.7mph /  6km/h 90% 0in /  0mm 0 W/m2
03:59 50 °F /  10 °C 46.4 °F /  8 °C 29.7in /  1006.16hPa N 8.7mph /  14km/h 5.6mph /  9km/h 89% 0in /  0mm 0 W/m2
04:04 50 °F /  10 °C 46.4 °F /  8 °C 29.7in /  1006.27hPa NNW 7.5mph /  12km/h 4.3mph /  7km/h 89% 0in /  0mm 0 W/m2
04:09 50 °F /  10 °C 46.4 °F /  8 °C 29.7in /  1006.43hPa NNW 6.2mph /  10km/h 5.6mph /  9km/h 89% 0in /  0mm 0 W/m2
04:14 50 °F /  10 °C 46.4 °F /  8 °C 29.7in /  1006.54hPa NNW 7.5mph /  12km/h 5mph /  8km/h 89% 0in /  0mm 0 W/m2
04:19 48.2 °F /  9 °C 46.4 °F /  8 °C 29.7in /  1006.57hPa NNW 6.2mph /  10km/h 3.7mph /  6km/h 89% 0in /  0mm 0 W/m2
04:24 48.2 °F /  9 °C 46.4 °F /  8 °C 29.7in /  1006.64hPa NNW 7.5mph /  12km/h 4.3mph /  7km/h 89% 0in /  0mm 0 W/m2
04:29 48.2 °F /  9 °C 46.4 °F /  8 °C 29.7in /  1006.64hPa WNW 6.2mph /  10km/h 5.6mph /  9km/h 89% 0in /  0mm 0 W/m2
04:34 48.2 °F /  9 °C 44.6 °F /  7 °C 29.7in /  1006.71hPa NW 5.6mph /  9km/h 3.7mph /  6km/h 88% 0in /  0mm 0 W/m2
04:39 48.2 °F /  9 °C 44.6 °F /  7 °C 29.7in /  1006.74hPa WNW 5mph /  8km/h 4.3mph /  7km/h 88% 0in /  0mm 0 W/m2
04:44 48.2 °F /  9 °C 44.6 °F /  7 °C 29.7in /  1006.84hPa NNW 5.6mph /  9km/h 4.3mph /  7km/h 89% 0in /  0mm 0 W/m2
04:49 48.2 °F /  9 °C 44.6 °F /  7 °C 29.7in /  1006.94hPa NW 6.2mph /  10km/h 5mph /  8km/h 89% 0in /  0mm 0 W/m2
04:54 48.2 °F /  9 °C 44.6 °F /  7 °C 29.7in /  1007.15hPa NNW 3.7mph /  6km/h 3.1mph /  5km/h 89% 0in /  0mm 0 W/m2
04:59 48.2 °F /  9 °C 44.6 °F /  7 °C 29.7in /  1007.25hPa NW 4.3mph /  7km/h 3.1mph /  5km/h 89% 0in /  0mm 0 W/m2
05:04 48.2 °F /  9 °C 44.6 °F /  7 °C 29.8in /  1007.35hPa W 5.6mph /  9km/h 4.3mph /  7km/h 89% 0in /  0mm 5 W/m2
05:09 48.2 °F /  9 °C 44.6 °F /  7 °C 29.8in /  1007.42hPa WNW 3.7mph /  6km/h 3.1mph /  5km/h 89% 0in /  0mm 7 W/m2
05:14 48.2 °F /  9 °C 44.6 °F /  7 °C 29.8in /  1007.45hPa WNW 4.3mph /  7km/h 2.5mph /  4km/h 89% 0in /  0mm 11 W/m2
05:19 48.2 °F /  9 °C 44.6 °F /  7 °C 29.8in /  1007.59hPa W 1.9mph /  3km/h 0.6mph /  1km/h 89% 0in /  0mm 16 W/m2
05:24 48.2 °F /  9 °C 44.6 °F /  7 °C 29.8in /  1007.79hPa WNW 2.5mph /  4km/h 1.2mph /  2km/h 89% 0in /  0mm 16 W/m2
05:29 48.2 °F /  9 °C 44.6 °F /  7 °C 29.8in /  1007.92hPa WNW 3.7mph /  6km/h 3.1mph /  5km/h 89% 0in /  0mm 25 W/m2
05:34 48.2 °F /  9 °C 44.6 °F /  7 °C 29.8in /  1008.06hPa NW 2.5mph /  4km/h 1.2mph /  2km/h 88% 0in /  0mm 23 W/m2
05:39 48.2 °F /  9 °C 44.6 °F /  7 °C 29.8in /  1008.09hPa WNW 6.2mph /  10km/h 5mph /  8km/h 88% 0in /  0mm 19 W/m2
05:44 48.2 °F /  9 °C 44.6 °F /  7 °C 29.8in /  1008.09hPa NW 8.1mph /  13km/h 5mph /  8km/h 86% 0in /  0mm 19 W/m2
05:49 48.2 °F /  9 °C 42.8 °F /  6 °C 29.8in /  1008.26hPa NW 8.1mph /  13km/h 5.6mph /  9km/h 84% 0in /  0mm 16 W/m2
05:54 48.2 °F /  9 °C 42.8 °F /  6 °C 29.8in /  1008.26hPa NW 7.5mph /  12km/h 6.2mph /  10km/h 83% 0in /  0mm 18 W/m2
05:59 48.2 °F /  9 °C 42.8 °F /  6 °C 29.8in /  1008.4hPa NW 5.6mph /  9km/h 5.6mph /  9km/h 81% 0in /  0mm 28 W/m2
06:04 48.2 °F /  9 °C 42.8 °F /  6 °C 29.8in /  1008.33hPa NW 7.5mph /  12km/h 6.2mph /  10km/h 80% 0in /  0mm 77 W/m2
06:09 48.2 °F /  9 °C 42.8 °F /  6 °C 29.8in /  1008.47hPa NW 6.8mph /  11km/h 6.2mph /  10km/h 78% 0in /  0mm 86 W/m2
06:14 48.2 °F /  9 °C 42.8 °F /  6 °C 29.8in /  1008.6hPa NNW 3.1mph /  5km/h 1.9mph /  3km/h 78% 0in /  0mm 95 W/m2
06:19 48.2 °F /  9 °C 42.8 °F /  6 °C 29.8in /  1008.74hPa NW 3.1mph /  5km/h 1.9mph /  3km/h 78% 0in /  0mm 104 W/m2
06:24 50 °F /  10 °C 42.8 °F /  6 °C 29.8in /  1008.84hPa NW 3.1mph /  5km/h 1.9mph /  3km/h 77% 0in /  0mm 111 W/m2
06:29 50 °F /  10 °C 42.8 °F /  6 °C 29.8in /  1008.97hPa NW 3.7mph /  6km/h 5mph /  8km/h 77% 0in /  0mm 125 W/m2
06:34 50 °F /  10 °C 42.8 °F /  6 °C 29.8in /  1009.11hPa NW 5.6mph /  9km/h 5mph /  8km/h 76% 0in /  0mm 151 W/m2
06:39 50 °F /  10 °C 42.8 °F /  6 °C 29.8in /  1009.18hPa NW 5.6mph /  9km/h 3.7mph /  6km/h 75% 0in /  0mm 155 W/m2
06:44 50 °F /  10 °C 42.8 °F /  6 °C 29.8in /  1009.18hPa WNW 1.9mph /  3km/h 3.7mph /  6km/h 75% 0in /  0mm 149 W/m2
06:49 50 °F /  10 °C 42.8 °F /  6 °C 29.8in /  1009.11hPa NW 1.2mph /  2km/h 0.6mph /  1km/h 75% 0in /  0mm 160 W/m2
06:54 50 °F /  10 °C 42.8 °F /  6 °C 29.8in /  1009.21hPa NNW 3.1mph /  5km/h 3.1mph /  5km/h 74% 0in /  0mm 171 W/m2
06:59 50 °F /  10 °C 42.8 °F /  6 °C 29.8in /  1009.25hPa NNW 5mph /  8km/h 4.3mph /  7km/h 73% 0in /  0mm 183 W/m2
07:04 50 °F /  10 °C 42.8 °F /  6 °C 29.8in /  1009.28hPa NNW 5mph /  8km/h 3.7mph /  6km/h 73% 0in /  0mm 197 W/m2
07:09 50 °F /  10 °C 42.8 °F /  6 °C 29.8in /  1009.45hPa NW 2.5mph /  4km/h 2.5mph /  4km/h 73% 0in /  0mm 207 W/m2
07:14 50 °F /  10 °C 42.8 °F /  6 °C 29.8in /  1009.58hPa NNW 3.7mph /  6km/h 5mph /  8km/h 72% 0in /  0mm 220 W/m2
07:19 50 °F /  10 °C 42.8 °F /  6 °C 29.8in /  1009.69hPa NNW 5.6mph /  9km/h 5mph /  8km/h 72% 0in /  0mm 220 W/m2
07:24 50 °F /  10 °C 42.8 °F /  6 °C 29.8in /  1009.75hPa NNW 5mph /  8km/h 3.1mph /  5km/h 72% 0in /  0mm 216 W/m2
07:29 50 °F /  10 °C 42.8 °F /  6 °C 29.8in /  1009.79hPa NW 3.7mph /  6km/h 3.1mph /  5km/h 73% 0in /  0mm 79 W/m2
07:34 50 °F /  10 °C 42.8 °F /  6 °C 29.8in /  1009.85hPa WNW 5.6mph /  9km/h 3.7mph /  6km/h 74% 0in /  0mm 267 W/m2
07:39 50 °F /  10 °C 42.8 °F /  6 °C 29.8in /  1009.85hPa NNW 5.6mph /  9km/h 4.3mph /  7km/h 74% 0in /  0mm 271 W/m2
07:44 50 °F /  10 °C 42.8 °F /  6 °C 29.8in /  1009.89hPa NW 6.8mph /  11km/h 7.5mph /  12km/h 73% 0in /  0mm 285 W/m2
07:49 51.8 °F /  11 °C 42.8 °F /  6 °C 29.8in /  1009.99hPa NW 6.8mph /  11km/h 6.8mph /  11km/h 71% 0in /  0mm 304 W/m2
07:54 51.8 °F /  11 °C 42.8 °F /  6 °C 29.8in /  1010.06hPa NW 6.8mph /  11km/h 5.6mph /  9km/h 71% 0in /  0mm 306 W/m2
07:59 51.8 °F /  11 °C 42.8 °F /  6 °C 29.8in /  1010.19hPa NW 10.6mph /  17km/h 9.3mph /  15km/h 70% 0in /  0mm 318 W/m2
08:04 51.8 °F /  11 °C 41 °F /  5 °C 29.8in /  1010.36hPa NNW 10.6mph /  17km/h 8.1mph /  13km/h 69% 0in /  0mm 330 W/m2
08:09 51.8 °F /  11 °C 41 °F /  5 °C 29.8in /  1010.46hPa NW 13mph /  21km/h 10.6mph /  17km/h 69% 0in /  0mm 294 W/m2
08:14 51.8 °F /  11 °C 41 °F /  5 °C 29.8in /  1010.57hPa NW 13mph /  21km/h 9.3mph /  15km/h 68% 0in /  0mm 330 W/m2
08:19 51.8 °F /  11 °C 41 °F /  5 °C 29.8in /  1010.7hPa NW 11.8mph /  19km/h 8.7mph /  14km/h 68% 0in /  0mm 327 W/m2
08:24 51.8 °F /  11 °C 41 °F /  5 °C 29.9in /  1010.87hPa NW 14.3mph /  23km/h 13mph /  21km/h 67% 0in /  0mm 350 W/m2
08:29 51.8 °F /  11 °C 41 °F /  5 °C 29.9in /  1010.87hPa NW 18.6mph /  30km/h 16.2mph /  26km/h 67% 0in /  0mm 371 W/m2
08:34 51.8 °F /  11 °C 41 °F /  5 °C 29.9in /  1011.01hPa NW 17.4mph /  28km/h 14.3mph /  23km/h 68% 0in /  0mm 362 W/m2
08:39 51.8 °F /  11 °C 41 °F /  5 °C 29.9in /  1011.07hPa NW 13.7mph /  22km/h 13.7mph /  22km/h 66% 0in /  0mm 353 W/m2
08:44 51.8 °F /  11 °C 41 °F /  5 °C 29.9in /  1011.18hPa NNW 13mph /  21km/h 11.8mph /  19km/h 66% 0in /  0mm 369 W/m2
08:49 51.8 °F /  11 °C 39.2 °F /  4 °C 29.9in /  1011.21hPa NW 15.5mph /  25km/h 14.9mph /  24km/h 65% 0in /  0mm 401 W/m2
08:54 51.8 °F /  11 °C 41 °F /  5 °C 29.9in /  1011.34hPa NNW 12.4mph /  20km/h 11.8mph /  19km/h 65% 0in /  0mm 436 W/m2
08:59 51.8 °F /  11 °C 41 °F /  5 °C 29.9in /  1011.45hPa NNW 11.8mph /  19km/h 9.9mph /  16km/h 64% 0in /  0mm 439 W/m2
09:04 51.8 °F /  11 °C 39.2 °F /  4 °C 29.9in /  1011.48hPa NW 16.2mph /  26km/h 13mph /  21km/h 63% 0in /  0mm 450 W/m2
09:09 51.8 °F /  11 °C 39.2 °F /  4 °C 29.9in /  1011.55hPa NNW 14.3mph /  23km/h 15.5mph /  25km/h 63% 0in /  0mm 538 W/m2
09:14 51.8 °F /  11 °C 41 °F /  5 °C 29.9in /  1011.68hPa NNW 13.7mph /  22km/h 13.7mph /  22km/h 64% 0in /  0mm 538 W/m2
09:19 53.6 °F /  12 °C 41 °F /  5 °C 29.9in /  1011.75hPa NNW 8.7mph /  14km/h 7.5mph /  12km/h 63% 0in /  0mm 577 W/m2
09:24 53.6 °F /  12 °C 41 °F /  5 °C 29.9in /  1011.85hPa NNW 9.3mph /  15km/h 6.2mph /  10km/h 63% 0in /  0mm 573 W/m2
09:29 53.6 °F /  12 °C 41 °F /  5 °C 29.9in /  1011.85hPa NNW 10.6mph /  17km/h 8.1mph /  13km/h 63% 0in /  0mm 192 W/m2
09:34 51.8 °F /  11 °C 41 °F /  5 °C 29.9in /  1011.85hPa NNW 13mph /  21km/h 11.8mph /  19km/h 64% 0in /  0mm 504 W/m2
09:39 51.8 °F /  11 °C 41 °F /  5 °C 29.9in /  1011.89hPa NNW 13mph /  21km/h 9.3mph /  15km/h 63% 0in /  0mm 513 W/m2
09:44 51.8 °F /  11 °C 41 °F /  5 °C 29.9in /  1011.99hPa NNW 13mph /  21km/h 11.8mph /  19km/h 63% 0in /  0mm 545 W/m2
09:49 53.6 °F /  12 °C 41 °F /  5 °C 29.9in /  1012.06hPa NNW 13.7mph /  22km/h 11.8mph /  19km/h 62% 0in /  0mm 513 W/m2
09:54 53.6 °F /  12 °C 41 °F /  5 °C 29.9in /  1012.16hPa NNW 13mph /  21km/h 12.4mph /  20km/h 61% 0in /  0mm 529 W/m2
09:59 53.6 °F /  12 °C 41 °F /  5 °C 29.9in /  1012.16hPa NW 15.5mph /  25km/h 13.7mph /  22km/h 61% 0in /  0mm 533 W/m2
10:04 53.6 °F /  12 °C 41 °F /  5 °C 29.9in /  1012.09hPa NNW 14.3mph /  23km/h 11.8mph /  19km/h 61% 0in /  0mm 533 W/m2
10:09 53.6 °F /  12 °C 39.2 °F /  4 °C 29.9in /  1012.12hPa NNW 14.9mph /  24km/h 11.8mph /  19km/h 60% 0in /  0mm 564 W/m2
10:14 53.6 °F /  12 °C 39.2 °F /  4 °C 29.9in /  1012.19hPa NW 19.3mph /  31km/h 18.6mph /  30km/h 58% 0in /  0mm 585 W/m2
10:19 53.6 °F /  12 °C 39.2 °F /  4 °C 29.9in /  1012.16hPa NW 19.3mph /  31km/h 18mph /  29km/h 57% 0in /  0mm 638 W/m2
10:24 53.6 °F /  12 °C 39.2 °F /  4 °C 29.9in /  1012.23hPa NW 19.3mph /  31km/h 18mph /  29km/h 56% 0in /  0mm 652 W/m2
10:29 53.6 °F /  12 °C 37.4 °F /  3 °C 29.9in /  1012.23hPa NW 19.3mph /  31km/h 17.4mph /  28km/h 54% 0in /  0mm 661 W/m2
10:34 53.6 °F /  12 °C 37.4 °F /  3 °C 29.9in /  1012.23hPa NW 19.3mph /  31km/h 19.9mph /  32km/h 54% 0in /  0mm 675 W/m2
10:39 53.6 °F /  12 °C 39.2 °F /  4 °C 29.9in /  1012.29hPa NW 18mph /  29km/h 16.2mph /  26km/h 56% 0in /  0mm 657 W/m2
10:44 53.6 °F /  12 °C 39.2 °F /  4 °C 29.9in /  1012.36hPa NW 13mph /  21km/h 13.7mph /  22km/h 57% 0in /  0mm 707 W/m2
10:49 55.4 °F /  13 °C 41 °F /  5 °C 29.9in /  1012.36hPa NW 11.2mph /  18km/h 8.1mph /  13km/h 58% 0in /  0mm 707 W/m2
10:54 55.4 °F /  13 °C 39.2 °F /  4 °C 29.9in /  1012.46hPa NW 14.3mph /  23km/h 11.2mph /  18km/h 56% 0in /  0mm 621 W/m2
10:59 55.4 °F /  13 °C 41 °F /  5 °C 29.9in /  1012.5hPa NW 9.9mph /  16km/h 7.5mph /  12km/h 57% 0in /  0mm 636 W/m2
11:04 55.4 °F /  13 °C 39.2 °F /  4 °C 29.9in /  1012.5hPa NNW 14.9mph /  24km/h 13mph /  21km/h 55% 0in /  0mm 724 W/m2
11:09 55.4 °F /  13 °C 39.2 °F /  4 °C 29.9in /  1012.63hPa NNW 11.8mph /  19km/h 9.3mph /  15km/h 55% 0in /  0mm 724 W/m2
11:14 55.4 °F /  13 °C 39.2 °F /  4 °C 29.9in /  1012.56hPa NW 12.4mph /  20km/h 13mph /  21km/h 54% 0in /  0mm 649 W/m2
11:19 55.4 °F /  13 °C 39.2 °F /  4 °C 29.9in /  1012.67hPa NW 14.9mph /  24km/h 12.4mph /  20km/h 54% 0in /  0mm 668 W/m2
11:24 55.4 °F /  13 °C 39.2 °F /  4 °C 29.9in /  1012.7hPa NW 13.7mph /  22km/h 9.9mph /  16km/h 56% 0in /  0mm 668 W/m2
11:29 55.4 °F /  13 °C 41 °F /  5 °C 29.9in /  1012.67hPa NNW 9.3mph /  15km/h 9.9mph /  16km/h 57% 0in /  0mm 719 W/m2
11:34 55.4 °F /  13 °C 39.2 °F /  4 °C 29.9in /  1012.5hPa NW 16.8mph /  27km/h 16.2mph /  26km/h 55% 0in /  0mm 726 W/m2
11:39 55.4 °F /  13 °C 41 °F /  5 °C 29.9in /  1012.53hPa NNW 11.8mph /  19km/h 9.3mph /  15km/h 54% 0in /  0mm 751 W/m2
11:44 57.2 °F /  14 °C 41 °F /  5 °C 29.9in /  1012.56hPa NW 11.2mph /  18km/h 11.2mph /  18km/h 54% 0in /  0mm 744 W/m2
11:49 57.2 °F /  14 °C 39.2 °F /  4 °C 29.9in /  1012.63hPa NNW 14.9mph /  24km/h 9.9mph /  16km/h 53% 0in /  0mm 756 W/m2
11:54 57.2 °F /  14 °C 39.2 °F /  4 °C 29.9in /  1012.63hPa NNW 14.3mph /  23km/h 11.2mph /  18km/h 51% 0in /  0mm 752 W/m2
11:59 57.2 °F /  14 °C 39.2 °F /  4 °C 29.9in /  1012.67hPa NNW 14.3mph /  23km/h 14.3mph /  23km/h 52% 0in /  0mm 728 W/m2
12:04 57.2 °F /  14 °C 39.2 °F /  4 °C 29.9in /  1012.63hPa NNW 14.9mph /  24km/h 11.8mph /  19km/h 51% 0in /  0mm 752 W/m2
12:09 57.2 °F /  14 °C 39.2 °F /  4 °C 29.9in /  1012.7hPa NNW 19.9mph /  32km/h 18mph /  29km/h 52% 0in /  0mm 756 W/m2
12:14 57.2 °F /  14 °C 39.2 °F /  4 °C 29.9in /  1012.73hPa NNW 15.5mph /  25km/h 14.3mph /  23km/h 52% 0in /  0mm 756 W/m2
12:19 57.2 °F /  14 °C 39.2 °F /  4 °C 29.9in /  1012.77hPa NNW 14.9mph /  24km/h 13mph /  21km/h 52% 0in /  0mm 729 W/m2
12:24 57.2 °F /  14 °C 39.2 °F /  4 °C 29.9in /  1012.9hPa NNW 17.4mph /  28km/h 18.6mph /  30km/h 51% 0in /  0mm 731 W/m2
12:29 57.2 °F /  14 °C 39.2 °F /  4 °C 29.9in /  1012.84hPa NW 19.9mph /  32km/h 18mph /  29km/h 52% 0in /  0mm 758 W/m2
12:34 57.2 °F /  14 °C 39.2 °F /  4 °C 29.9in /  1013.04hPa NNW 20.5mph /  33km/h 17.4mph /  28km/h 53% 0in /  0mm 779 W/m2
12:39 57.2 °F /  14 °C 39.2 °F /  4 °C 29.9in /  1012.97hPa NNW 19.3mph /  31km/h 14.3mph /  23km/h 51% 0in /  0mm 779 W/m2
12:44 57.2 °F /  14 °C 39.2 °F /  4 °C 29.9in /  1013.14hPa NNW 19.3mph /  31km/h 17.4mph /  28km/h 50% 0in /  0mm 759 W/m2
12:49 57.2 °F /  14 °C 39.2 °F /  4 °C 29.9in /  1013.14hPa NNW 17.4mph /  28km/h 16.2mph /  26km/h 51% 0in /  0mm 735 W/m2
12:54 57.2 °F /  14 °C 39.2 °F /  4 °C 29.9in /  1013.14hPa NNW 16.2mph /  26km/h 13mph /  21km/h 52% 0in /  0mm 761 W/m2
12:59 57.2 °F /  14 °C 39.2 °F /  4 °C 29.9in /  1013.14hPa NNW 16.8mph /  27km/h 18mph /  29km/h 51% 0in /  0mm 770 W/m2
13:04 57.2 °F /  14 °C 39.2 °F /  4 °C 29.9in /  1013.28hPa NNW 19.9mph /  32km/h 20.5mph /  33km/h 50% 0in /  0mm 786 W/m2
13:09 57.2 °F /  14 °C 39.2 °F /  4 °C 29.9in /  1013.28hPa NNW 14.9mph /  24km/h 14.3mph /  23km/h 51% 0in /  0mm 795 W/m2
13:14 57.2 °F /  14 °C 39.2 °F /  4 °C 29.9in /  1013.24hPa NNW 14.9mph /  24km/h 13.7mph /  22km/h 50% 0in /  0mm 788 W/m2
13:19 59 °F /  15 °C 41 °F /  5 °C 29.9in /  1013.28hPa NNW 11.8mph /  19km/h 11.2mph /  18km/h 51% 0in /  0mm 788 W/m2
13:24 59 °F /  15 °C 41 °F /  5 °C 29.9in /  1013.34hPa NNW 10.6mph /  17km/h 9.3mph /  15km/h 51% 0in /  0mm 812 W/m2
13:29 59 °F /  15 °C 39.2 °F /  4 °C 29.9in /  1013.34hPa NNW 18mph /  29km/h 15.5mph /  25km/h 49% 0in /  0mm 812 W/m2
13:34 57.2 °F /  14 °C 39.2 °F /  4 °C 29.9in /  1013.38hPa NNW 18.6mph /  30km/h 17.4mph /  28km/h 51% 0in /  0mm 766 W/m2
13:39 59 °F /  15 °C 41 °F /  5 °C 29.9in /  1013.58hPa NNW 13.7mph /  22km/h 11.8mph /  19km/h 51% 0in /  0mm 766 W/m2
13:44 59 °F /  15 °C 44.6 °F /  7 °C 29.9in /  1013.58hPa NNW 12.4mph /  20km/h 8.1mph /  13km/h 58% 0in /  0mm 765 W/m2
13:49 57.2 °F /  14 °C 44.6 °F /  7 °C 29.9in /  1013.65hPa NNW 11.2mph /  18km/h 7.5mph /  12km/h 60% 0in /  0mm 775 W/m2
13:54 59 °F /  15 °C 44.6 °F /  7 °C 29.9in /  1013.68hPa NW 8.7mph /  14km/h 10.6mph /  17km/h 59% 0in /  0mm 777 W/m2
13:59 59 °F /  15 °C 41 °F /  5 °C 29.9in /  1013.75hPa NNW 14.3mph /  23km/h 11.8mph /  19km/h 51% 0in /  0mm 817 W/m2
14:04 59 °F /  15 °C 42.8 °F /  6 °C 29.9in /  1013.82hPa NNW 9.9mph /  16km/h 9.3mph /  15km/h 55% 0in /  0mm 842 W/m2
14:09 59 °F /  15 °C 44.6 °F /  7 °C 29.9in /  1013.82hPa NNW 9.9mph /  16km/h 8.1mph /  13km/h 60% 0in /  0mm 814 W/m2
14:14 59 °F /  15 °C 44.6 °F /  7 °C 29.9in /  1013.95hPa NNW 8.7mph /  14km/h 5mph /  8km/h 60% 0in /  0mm 784 W/m2
14:19 59 °F /  15 °C 44.6 °F /  7 °C 29.9in /  1014.02hPa NNW 9.3mph /  15km/h 7.5mph /  12km/h 60% 0in /  0mm 816 W/m2
14:24 59 °F /  15 °C 41 °F /  5 °C 29.9in /  1014.05hPa NNW 11.2mph /  18km/h 9.9mph /  16km/h 53% 0in /  0mm 728 W/m2
14:29 59 °F /  15 °C 44.6 °F /  7 °C 30in /  1014.22hPa NW 7.5mph /  12km/h 5.6mph /  9km/h 57% 0in /  0mm 756 W/m2
14:34 59 °F /  15 °C 44.6 °F /  7 °C 30in /  1014.22hPa NNW 12.4mph /  20km/h 8.1mph /  13km/h 61% 0in /  0mm 756 W/m2
14:39 57.2 °F /  14 °C 44.6 °F /  7 °C 30in /  1014.26hPa NNW 7.5mph /  12km/h 6.2mph /  10km/h 64% 0in /  0mm 817 W/m2
14:44 57.2 °F /  14 °C 44.6 °F /  7 °C 30in /  1014.26hPa NNW 12.4mph /  20km/h 9.3mph /  15km/h 59% 0in /  0mm 817 W/m2
14:49 59 °F /  15 °C 42.8 °F /  6 °C 30in /  1014.29hPa NNW 13.7mph /  22km/h 8.7mph /  14km/h 52% 0in /  0mm 821 W/m2
14:54 60.8 °F /  16 °C 42.8 °F /  6 °C 30in /  1014.39hPa NNW 9.3mph /  15km/h 9.3mph /  15km/h 51% 0in /  0mm 761 W/m2
14:59 60.8 °F /  16 °C 41 °F /  5 °C 30in /  1014.39hPa NNW 20.5mph /  33km/h 19.3mph /  31km/h 50% 0in /  0mm 749 W/m2
15:04 59 °F /  15 °C 41 °F /  5 °C 30in /  1014.39hPa N 18.6mph /  30km/h 14.9mph /  24km/h 50% 0in /  0mm 737 W/m2
15:09 60.8 °F /  16 °C 41 °F /  5 °C 30in /  1014.46hPa NNW 11.8mph /  19km/h 13mph /  21km/h 50% 0in /  0mm 786 W/m2
15:14 60.8 °F /  16 °C 41 °F /  5 °C 30in /  1014.56hPa N 16.2mph /  26km/h 14.3mph /  23km/h 49% 0in /  0mm 828 W/m2
15:19 60.8 °F /  16 °C 41 °F /  5 °C 30in /  1014.66hPa NNW 12.4mph /  20km/h 9.9mph /  16km/h 50% 0in /  0mm 816 W/m2
15:24 60.8 °F /  16 °C 41 °F /  5 °C 30in /  1014.7hPa NNW 11.8mph /  19km/h 7.5mph /  12km/h 49% 0in /  0mm 698 W/m2
15:29 60.8 °F /  16 °C 42.8 °F /  6 °C 30in /  1014.8hPa NNW 10.6mph /  17km/h 6.8mph /  11km/h 50% 0in /  0mm 759 W/m2
15:34 60.8 °F /  16 °C 46.4 °F /  8 °C 30in /  1014.8hPa NNW 9.3mph /  15km/h 5.6mph /  9km/h 58% 0in /  0mm 698 W/m2
15:39 59 °F /  15 °C 46.4 °F /  8 °C 30in /  1014.73hPa NNW 9.9mph /  16km/h 6.2mph /  10km/h 61% 0in /  0mm 735 W/m2
15:44 57.2 °F /  14 °C 44.6 °F /  7 °C 30in /  1014.77hPa NNW 11.2mph /  18km/h 9.3mph /  15km/h 62% 0in /  0mm 735 W/m2
15:49 57.2 °F /  14 °C 44.6 °F /  7 °C 30in /  1014.73hPa N 9.9mph /  16km/h 7.5mph /  12km/h 63% 0in /  0mm 654 W/m2
15:54 59 °F /  15 °C 44.6 °F /  7 °C 30in /  1014.93hPa N 7.5mph /  12km/h 8.1mph /  13km/h 62% 0in /  0mm 628 W/m2
15:59 57.2 °F /  14 °C 46.4 °F /  8 °C 30in /  1014.93hPa NNW 10.6mph /  17km/h 6.2mph /  10km/h 63% 0in /  0mm 680 W/m2
16:04 57.2 °F /  14 °C 44.6 °F /  7 °C 30in /  1014.93hPa NNW 11.2mph /  18km/h 9.9mph /  16km/h 63% 0in /  0mm 650 W/m2
16:09 59 °F /  15 °C 44.6 °F /  7 °C 30in /  1014.97hPa NNW 11.8mph /  19km/h 9.3mph /  15km/h 57% 0in /  0mm 626 W/m2
16:14 59 °F /  15 °C 44.6 °F /  7 °C 30in /  1015.24hPa NNW 10.6mph /  17km/h 11.8mph /  19km/h 55% 0in /  0mm 626 W/m2
16:19 59 °F /  15 °C 46.4 °F /  8 °C 30in /  1015.24hPa NNW 10.6mph /  17km/h 7.5mph /  12km/h 59% 0in /  0mm 589 W/m2
16:24 57.2 °F /  14 °C 46.4 °F /  8 °C 30in /  1015.37hPa NNW 9.3mph /  15km/h 8.1mph /  13km/h 64% 0in /  0mm 204 W/m2
16:29 57.2 °F /  14 °C 44.6 °F /  7 °C 30in /  1015.37hPa N 12.4mph /  20km/h 9.9mph /  16km/h 63% 0in /  0mm 612 W/m2
16:34 55.4 °F /  13 °C 46.4 °F /  8 °C 30in /  1015.41hPa NNW 12.4mph /  20km/h 12.4mph /  20km/h 68% 0in /  0mm 635 W/m2
16:39 55.4 °F /  13 °C 46.4 °F /  8 °C 30in /  1015.41hPa NNW 12.4mph /  20km/h 9.9mph /  16km/h 69% 0in /  0mm 186 W/m2
16:44 55.4 °F /  13 °C 46.4 °F /  8 °C 30in /  1015.37hPa N 12.4mph /  20km/h 8.1mph /  13km/h 69% 0in /  0mm 587 W/m2
16:49 57.2 °F /  14 °C 46.4 °F /  8 °C 30in /  1015.34hPa N 11.2mph /  18km/h 8.7mph /  14km/h 67% 0in /  0mm 585 W/m2
16:54 59 °F /  15 °C 46.4 °F /  8 °C 30in /  1015.37hPa NNW 9.3mph /  15km/h 7.5mph /  12km/h 65% 0in /  0mm 550 W/m2
16:59 59 °F /  15 °C 46.4 °F /  8 °C 30in /  1015.34hPa N 13.7mph /  22km/h 7.5mph /  12km/h 63% 0in /  0mm 564 W/m2
17:04 59 °F /  15 °C 46.4 °F /  8 °C 30in /  1015.37hPa N 13mph /  21km/h 9.3mph /  15km/h 63% 0in /  0mm 543 W/m2
17:09 57.2 °F /  14 °C 46.4 °F /  8 °C 30in /  1015.44hPa NNW 12.4mph /  20km/h 9.3mph /  15km/h 63% 0in /  0mm 513 W/m2
17:14 59 °F /  15 °C 44.6 °F /  7 °C 30in /  1015.51hPa NNW 11.2mph /  18km/h 8.7mph /  14km/h 60% 0in /  0mm 508 W/m2
17:19 59 °F /  15 °C 46.4 °F /  8 °C 30in /  1015.58hPa NNW 11.2mph /  18km/h 9.3mph /  15km/h 60% 0in /  0mm 501 W/m2
17:24 59 °F /  15 °C 44.6 °F /  7 °C 30in /  1015.58hPa N 12.4mph /  20km/h 11.8mph /  19km/h 60% 0in /  0mm 452 W/m2
17:29 59 °F /  15 °C 44.6 °F /  7 °C 30in /  1015.54hPa N 16.2mph /  26km/h 13.7mph /  22km/h 61% 0in /  0mm 429 W/m2
17:34 59 °F /  15 °C 44.6 °F /  7 °C 30in /  1015.58hPa N 12.4mph /  20km/h 8.1mph /  13km/h 61% 0in /  0mm 483 W/m2
17:39 59 °F /  15 °C 44.6 °F /  7 °C 30in /  1015.71hPa N 18mph /  29km/h 13.7mph /  22km/h 60% 0in /  0mm 496 W/m2
17:44 59 °F /  15 °C 46.4 °F /  8 °C 30in /  1015.68hPa N 14.3mph /  23km/h 9.9mph /  16km/h 62% 0in /  0mm 497 W/m2
17:49 59 °F /  15 °C 44.6 °F /  7 °C 30in /  1015.88hPa N 13mph /  21km/h 9.3mph /  15km/h 62% 0in /  0mm 448 W/m2
17:54 57.2 °F /  14 °C 44.6 °F /  7 °C 30in /  1015.92hPa N 16.2mph /  26km/h 12.4mph /  20km/h 62% 0in /  0mm 378 W/m2
17:59 57.2 °F /  14 °C 44.6 °F /  7 °C 30in /  1015.95hPa N 18mph /  29km/h 13mph /  21km/h 64% 0in /  0mm 378 W/m2
18:04 57.2 °F /  14 °C 44.6 °F /  7 °C 30in /  1016.05hPa N 18mph /  29km/h 14.9mph /  24km/h 65% 0in /  0mm 392 W/m2
18:09 57.2 °F /  14 °C 44.6 °F /  7 °C 30in /  1016.05hPa N 14.9mph /  24km/h 11.2mph /  18km/h 66% 0in /  0mm 439 W/m2
18:14 57.2 °F /  14 °C 44.6 °F /  7 °C 30in /  1016.02hPa N 13mph /  21km/h 9.3mph /  15km/h 66% 0in /  0mm 457 W/m2
18:19 57.2 °F /  14 °C 46.4 °F /  8 °C 30in /  1016.09hPa N 15.5mph /  25km/h 10.6mph /  17km/h 66% 0in /  0mm 468 W/m2
18:24 57.2 °F /  14 °C 46.4 °F /  8 °C 30in /  1016.12hPa N 9.3mph /  15km/h 8.1mph /  13km/h 66% 0in /  0mm 461 W/m2
18:29 57.2 °F /  14 °C 44.6 °F /  7 °C 30in /  1016.19hPa N 12.4mph /  20km/h 10.6mph /  17km/h 65% 0in /  0mm 446 W/m2
18:34 55.4 °F /  13 °C 44.6 °F /  7 °C 30in /  1016.26hPa NNW 8.1mph /  13km/h 6.8mph /  11km/h 66% 0in /  0mm 380 W/m2
18:39 55.4 °F /  13 °C 44.6 °F /  7 °C 30in /  1016.32hPa NNW 12.4mph /  20km/h 10.6mph /  17km/h 66% 0in /  0mm 380 W/m2
18:44 55.4 °F /  13 °C 44.6 °F /  7 °C 30in /  1016.36hPa NNW 9.9mph /  16km/h 8.7mph /  14km/h 67% 0in /  0mm 364 W/m2
18:49 55.4 °F /  13 °C 44.6 °F /  7 °C 30in /  1016.32hPa N 11.8mph /  19km/h 8.1mph /  13km/h 67% 0in /  0mm 364 W/m2
18:54 55.4 °F /  13 °C 44.6 °F /  7 °C 30in /  1016.39hPa NNW 10.6mph /  17km/h 8.1mph /  13km/h 67% 0in /  0mm 190 W/m2
18:59 55.4 °F /  13 °C 44.6 °F /  7 °C 30in /  1016.36hPa NNW 11.8mph /  19km/h 8.7mph /  14km/h 67% 0in /  0mm 190 W/m2
19:04 55.4 °F /  13 °C 44.6 °F /  7 °C 30in /  1016.39hPa N 11.2mph /  18km/h 9.3mph /  15km/h 68% 0in /  0mm 281 W/m2
19:09 55.4 °F /  13 °C 44.6 °F /  7 °C 30in /  1016.39hPa NNW 12.4mph /  20km/h 10.6mph /  17km/h 67% 0in /  0mm 193 W/m2
19:14 55.4 °F /  13 °C 44.6 °F /  7 °C 30in /  1016.39hPa N 10.6mph /  17km/h 8.7mph /  14km/h 68% 0in /  0mm 113 W/m2
19:19 55.4 °F /  13 °C 44.6 °F /  7 °C 30in /  1016.46hPa N 12.4mph /  20km/h 8.1mph /  13km/h 68% 0in /  0mm 104 W/m2
19:24 55.4 °F /  13 °C 44.6 °F /  7 °C 30in /  1016.42hPa N 13mph /  21km/h 10.6mph /  17km/h 70% 0in /  0mm 127 W/m2
19:29 55.4 °F /  13 °C 44.6 °F /  7 °C 30in /  1016.46hPa N 13.7mph /  22km/h 9.3mph /  15km/h 70% 0in /  0mm 74 W/m2
19:34 53.6 °F /  12 °C 44.6 °F /  7 °C 30in /  1016.53hPa NNW 15.5mph /  25km/h 9.9mph /  16km/h 70% 0in /  0mm 79 W/m2
19:39 53.6 °F /  12 °C 44.6 °F /  7 °C 30in /  1016.53hPa NNW 10.6mph /  17km/h 7.5mph /  12km/h 71% 0in /  0mm 188 W/m2
19:44 55.4 °F /  13 °C 46.4 °F /  8 °C 30in /  1016.56hPa NNW 8.1mph /  13km/h 8.1mph /  13km/h 71% 0in /  0mm 153 W/m2
19:49 55.4 °F /  13 °C 46.4 °F /  8 °C 30in /  1016.7hPa NNW 8.7mph /  14km/h 6.2mph /  10km/h 71% 0in /  0mm 77 W/m2
19:54 53.6 °F /  12 °C 46.4 °F /  8 °C 30in /  1016.7hPa NNW 9.3mph /  15km/h 8.7mph /  14km/h 72% 0in /  0mm 151 W/m2
19:59 53.6 °F /  12 °C 46.4 °F /  8 °C 30in /  1016.7hPa NNW 10.6mph /  17km/h 9.3mph /  15km/h 72% 0in /  0mm 86 W/m2
20:04 53.6 °F /  12 °C 46.4 °F /  8 °C 30in /  1016.73hPa NW 6.8mph /  11km/h 6.2mph /  10km/h 73% 0in /  0mm 74 W/m2
20:09 53.6 °F /  12 °C 46.4 °F /  8 °C 30in /  1016.8hPa NNW 11.8mph /  19km/h 10.6mph /  17km/h 73% 0in /  0mm 107 W/m2
20:14 53.6 °F /  12 °C 46.4 °F /  8 °C 30in /  1016.86hPa NNW 14.9mph /  24km/h 10.6mph /  17km/h 74% 0in /  0mm 107 W/m2
20:19 53.6 °F /  12 °C 46.4 °F /  8 °C 30in /  1016.9hPa NNW 11.8mph /  19km/h 9.3mph /  15km/h 74% 0in /  0mm 130 W/m2
20:24 53.6 °F /  12 °C 46.4 °F /  8 °C 30in /  1016.93hPa NNW 12.4mph /  20km/h 9.3mph /  15km/h 75% 0in /  0mm 135 W/m2
20:29 53.6 °F /  12 °C 46.4 °F /  8 °C 30in /  1017hPa NNW 8.7mph /  14km/h 6.8mph /  11km/h 75% 0in /  0mm 93 W/m2
20:34 53.6 °F /  12 °C 46.4 °F /  8 °C 30in /  1016.97hPa NNW 8.1mph /  13km/h 6.2mph /  10km/h 75% 0in /  0mm 72 W/m2
20:39 53.6 °F /  12 °C 46.4 °F /  8 °C 30in /  1017.03hPa NNW 9.9mph /  16km/h 7.5mph /  12km/h 75% 0in /  0mm 69 W/m2
20:44 53.6 °F /  12 °C 46.4 °F /  8 °C 30in /  1017.03hPa NW 7.5mph /  12km/h 6.2mph /  10km/h 76% 0in /  0mm 63 W/m2
20:49 53.6 °F /  12 °C 46.4 °F /  8 °C 30in /  1017.1hPa NW 8.7mph /  14km/h 6.8mph /  11km/h 76% 0in /  0mm 65 W/m2
20:54 53.6 °F /  12 °C 46.4 °F /  8 °C 30in /  1017.17hPa NNW 7.5mph /  12km/h 6.2mph /  10km/h 76% 0in /  0mm 58 W/m2
20:59 53.6 °F /  12 °C 46.4 °F /  8 °C 30in /  1017.17hPa NNW 7.5mph /  12km/h 5.6mph /  9km/h 77% 0in /  0mm 53 W/m2
21:04 53.6 °F /  12 °C 46.4 °F /  8 °C 30in /  1017.17hPa NNW 9.9mph /  16km/h 9.3mph /  15km/h 77% 0in /  0mm 44 W/m2
21:09 53.6 °F /  12 °C 46.4 °F /  8 °C 30in /  1017.03hPa NNW 8.1mph /  13km/h 6.8mph /  11km/h 77% 0in /  0mm 35 W/m2
21:14 53.6 °F /  12 °C 46.4 °F /  8 °C 30in /  1017.07hPa NW 5.6mph /  9km/h 4.3mph /  7km/h 77% 0in /  0mm 30 W/m2
21:19 51.8 °F /  11 °C 46.4 °F /  8 °C 30in /  1017.17hPa NNW 8.7mph /  14km/h 5.6mph /  9km/h 77% 0in /  0mm 28 W/m2
21:24 51.8 °F /  11 °C 46.4 °F /  8 °C 30in /  1017.17hPa NW 6.8mph /  11km/h 5.6mph /  9km/h 77% 0in /  0mm 25 W/m2
21:29 51.8 °F /  11 °C 46.4 °F /  8 °C 30in /  1017.17hPa NNW 9.9mph /  16km/h 7.5mph /  12km/h 78% 0in /  0mm 19 W/m2
21:34 51.8 °F /  11 °C 46.4 °F /  8 °C 30in /  1017.2hPa NW 5mph /  8km/h 4.3mph /  7km/h 78% 0in /  0mm 16 W/m2
21:39 51.8 °F /  11 °C 44.6 °F /  7 °C 30in /  1017.31hPa NW 3.7mph /  6km/h 3.7mph /  6km/h 78% 0in /  0mm 12 W/m2
21:44 51.8 °F /  11 °C 44.6 °F /  7 °C 30in /  1017.34hPa NW 4.3mph /  7km/h 3.1mph /  5km/h 78% 0in /  0mm 11 W/m2
21:49 51.8 °F /  11 °C 46.4 °F /  8 °C 30in /  1017.41hPa NW 3.7mph /  6km/h 3.7mph /  6km/h 78% 0in /  0mm 11 W/m2
21:54 51.8 °F /  11 °C 46.4 °F /  8 °C 30in /  1017.37hPa NW 2.5mph /  4km/h 2.5mph /  4km/h 79% 0in /  0mm 9 W/m2
21:59 51.8 °F /  11 °C 46.4 °F /  8 °C 30in /  1017.47hPa WNW 1.2mph /  2km/h 1.2mph /  2km/h 79% 0in /  0mm 7 W/m2
22:04 51.8 °F /  11 °C 46.4 °F /  8 °C 30.1in /  1017.51hPa W 1.9mph /  3km/h 1.9mph /  3km/h 79% 0in /  0mm 5 W/m2
22:09 51.8 °F /  11 °C 46.4 °F /  8 °C 30in /  1017.47hPa W 0.6mph /  1km/h 1.2mph /  2km/h 79% 0in /  0mm 0 W/m2
22:14 51.8 °F /  11 °C 44.6 °F /  7 °C 30.1in /  1017.54hPa Calm     79% 0in /  0mm 0 W/m2
22:19 51.8 °F /  11 °C 44.6 °F /  7 °C 30.1in /  1017.54hPa NW 1.2mph /  2km/h 1.2mph /  2km/h 79% 0in /  0mm 0 W/m2
22:24 51.8 °F /  11 °C 44.6 °F /  7 °C 30.1in /  1017.58hPa WNW 1.2mph /  2km/h   80% 0in /  0mm 0 W/m2
22:29 51.8 °F /  11 °C 44.6 °F /  7 °C 30.1in /  1017.64hPa NW 1.2mph /  2km/h 1.2mph /  2km/h 80% 0in /  0mm 0 W/m2
22:34 51.8 °F /  11 °C 44.6 °F /  7 °C 30.1in /  1017.68hPa NW 0.6mph /  1km/h 0.6mph /  1km/h 80% 0in /  0mm 0 W/m2
22:39 50 °F /  10 °C 44.6 °F /  7 °C 30.1in /  1017.75hPa WNW 1.9mph /  3km/h 1.2mph /  2km/h 80% 0in /  0mm 0 W/m2
22:44 50 °F /  10 °C 44.6 °F /  7 °C 30.1in /  1017.78hPa W 3.1mph /  5km/h 2.5mph /  4km/h 82% 0in /  0mm 0 W/m2
22:49 50 °F /  10 °C 44.6 °F /  7 °C 30.1in /  1017.78hPa W 3.7mph /  6km/h 3.1mph /  5km/h 83% 0in /  0mm 0 W/m2
22:54 50 °F /  10 °C 44.6 °F /  7 °C 30.1in /  1017.81hPa N 3.1mph /  5km/h 3.1mph /  5km/h 85% 0in /  0mm 0 W/m2
22:59 50 °F /  10 °C 44.6 °F /  7 °C 30.1in /  1017.81hPa NW 2.5mph /  4km/h 1.2mph /  2km/h 85% 0in /  0mm 0 W/m2
23:04 50 °F /  10 °C 44.6 °F /  7 °C 30.1in /  1017.78hPa W 2.5mph /  4km/h 1.2mph /  2km/h 84% 0in /  0mm 0 W/m2
23:09 50 °F /  10 °C 44.6 °F /  7 °C 30.1in /  1017.88hPa W 3.7mph /  6km/h 3.1mph /  5km/h 84% 0in /  0mm 0 W/m2
23:14 50 °F /  10 °C 44.6 °F /  7 °C 30.1in /  1017.88hPa WNW 3.7mph /  6km/h 3.1mph /  5km/h 84% 0in /  0mm 0 W/m2
23:19 50 °F /  10 °C 44.6 °F /  7 °C 30.1in /  1017.85hPa NW 3.1mph /  5km/h 1.2mph /  2km/h 84% 0in /  0mm 0 W/m2
23:24 50 °F /  10 °C 44.6 °F /  7 °C 30.1in /  1017.88hPa WNW 3.7mph /  6km/h 2.5mph /  4km/h 84% 0in /  0mm 0 W/m2
23:29 50 °F /  10 °C 44.6 °F /  7 °C 30.1in /  1017.85hPa NW 4.3mph /  7km/h 2.5mph /  4km/h 83% 0in /  0mm 0 W/m2
23:34 50 °F /  10 °C 44.6 °F /  7 °C 30.1in /  1017.81hPa NNW 3.7mph /  6km/h 2.5mph /  4km/h 83% 0in /  0mm 0 W/m2
23:39 50 °F /  10 °C 44.6 °F /  7 °C 30.1in /  1017.88hPa WNW 3.1mph /  5km/h 1.9mph /  3km/h 83% 0in /  0mm 0 W/m2
23:44 50 °F /  10 °C 44.6 °F /  7 °C 30.1in /  1017.91hPa NW 4.3mph /  7km/h 3.1mph /  5km/h 83% 0in /  0mm 0 W/m2
23:49 50 °F /  10 °C 44.6 °F /  7 °C 30.1in /  1017.88hPa NW 4.3mph /  7km/h 3.1mph /  5km/h 83% 0in /  0mm 0 W/m2
23:54 50 °F /  10 °C 44.6 °F /  7 °C 30.1in /  1017.95hPa W 4.3mph /  7km/h 2.5mph /  4km/h 84% 0in /  0mm 0 W/m2
23:59 50 °F /  10 °C 44.6 °F /  7 °C 30.1in /  1018.02hPa WSW 0.6mph /  1km/h 0.6mph /  1km/h 84% 0in /  0mm 0 W/m2
Compliments of Weather Underground - 2 mb